• Join FlightAware (Why Join?)
  • Login
  • US Flag 
Trick or treat! (Boo!!) 
04:03AM EDT


 

Airport Tracker/Info


-or-


 

Live Flight TrackerFlight Track Log ✈ N6184V ✈ 29-Jan-2014 ✈ KISM - KISM

Flight Track Log - Related Links

Times and Time Zones

All times are in EST time to prevent confusion due to time zone crossing. See the N6184V flight status page for this flight to view local times or setup timezone preferences in your user account.

Time Position Orientation Groundspeed Altitude Reporting Facility
EST Latitude Longitude Course Direction KTS MPH feet Rate Location/Type
09:40AM 28.3000 -81.4333 270° West 78 90 400  Level Orlando TRACON
09:40AM 28.3000 -81.4500 270° West 72 83 700 780 Climbing Orlando TRACON
09:41AM 28.3000 -81.4833 270° West 92 106 1,500 720 Climbing Orlando TRACON
09:42AM 28.3000 -81.5000 270° West 83 96 2,200 600 Climbing Orlando TRACON
09:43AM 28.2833 -81.5333 240° Southwest 85 98 2,800 360 Climbing Orlando TRACON
09:44AM 28.3000 -81.5500 319° Northwest 83 96 3,000 120 Climbing Orlando TRACON
09:45AM 28.3000 -81.5833 270° West 85 98 3,100  Climbing Orlando TRACON
09:46AM 28.3000 -81.6000 270° West 84 97 3,000 -60 Descending Orlando TRACON
09:47AM 28.3000 -81.6333 270° West 108 124 3,000  Level Orlando TRACON
09:48AM 28.2833 -81.6500 221° Southwest 112 129 3,000  Level Orlando TRACON
09:49AM 28.2667 -81.6167 120° Southeast 87 100 3,100  Climbing Orlando TRACON
09:50AM 28.2833 -81.6167 360° North 78 90 3,000 -60 Descending Orlando TRACON
09:51AM 28.3167 -81.6000 24° Northeast 88 101 3,000  Level Orlando TRACON
09:52AM 28.2833 -81.5833 156° South 120 138 3,100  Climbing Orlando TRACON
09:53AM 28.2667 -81.6000 221° Southwest 113 130 3,000 -60 Descending Orlando TRACON
09:54AM 28.2833 -81.6167 319° Northwest 74 85 3,000  Level Orlando TRACON
09:55AM 28.3000 -81.6000 41° Northeast 81 93 3,000  Level Orlando TRACON
09:56AM 28.3167 -81.6000 360° North 90 104 3,000  Level Orlando TRACON
09:57AM 28.2833 -81.6000 180° South 114 131 3,000  Level Orlando TRACON
09:58AM 28.2667 -81.6167 221° Southwest 109 125 3,000  Level Orlando TRACON
09:59AM 28.2833 -81.6167 360° North 84 97 3,000  Level Orlando TRACON
10:00AM 28.3000 -81.6167 360° North 83 96 3,000  Level Orlando TRACON
10:01AM 28.3000 -81.5833 90° East 104 120 3,000  Level Orlando TRACON
10:02AM 28.2833 -81.6000 221° Southwest 113 130 3,000  Level Orlando TRACON
10:03AM 28.2833 -81.6167 270° West 88 101 3,000  Level Orlando TRACON
10:04AM 28.3000 -81.6000 41° Northeast 81 93 3,000  Level Orlando TRACON
10:05AM 28.3000 -81.5833 90° East 107 123 3,000  Level Orlando TRACON
10:06AM 28.2833 -81.6000 221° Southwest 112 129 3,000  Level Orlando TRACON
10:07AM 28.2833 -81.6333 270° West 92 106 3,000  Level Orlando TRACON
10:08AM 28.3000 -81.6167 41° Northeast 78 90 3,000  Level Orlando TRACON
10:09AM 28.3167 -81.6000 41° Northeast 95 109 3,000  Level Orlando TRACON
10:10AM 28.2833 -81.6000 180° South 115 132 3,000  Level Orlando TRACON
10:11AM 28.2833 -81.6167 270° West 85 98 3,000  Level Orlando TRACON
10:12AM 28.3167 -81.6000 24° Northeast 80 92 3,000  Level Orlando TRACON
10:13AM 28.3000 -81.6000 180° South 114 131 3,000  Level Orlando TRACON
10:14AM 28.2667 -81.6167 204° Southwest 105 121 3,000  Level Orlando TRACON
10:15AM 28.2833 -81.6167 360° North 82 94 3,000  Level Orlando TRACON
10:16AM 28.3167 -81.6000 24° Northeast 83 96 3,000  Level Orlando TRACON
10:17AM 28.3000 -81.5833 139° Southeast 119 137 3,000  Level Orlando TRACON
10:18AM 28.2833 -81.6000 221° Southwest 110 127 3,000  Level Orlando TRACON
10:19AM 28.2833 -81.6167 270° West 91 105 3,000  Level Orlando TRACON
10:20AM 28.3000 -81.6167 360° North 86 99 3,000  Level Orlando TRACON
10:21AM 28.3000 -81.5833 90° East 109 125 3,000  Level Orlando TRACON
10:22AM 28.2833 -81.6000 221° Southwest 107 123 3,000  Level Orlando TRACON
10:23AM 28.2667 -81.6333 240° Southwest 98 113 3,000  Level Orlando TRACON
10:24AM 28.3000 -81.6333 360° North 76 87 3,000  Level Orlando TRACON
10:25AM 28.3000 -81.6167 90° East 87 100 3,000  Level Orlando TRACON
10:26AM 28.3000 -81.5833 90° East 113 130 3,000 -180 Level Orlando TRACON
10:27AM 28.2833 -81.6000 221° Southwest 117 135 2,700 -300 Descending Orlando TRACON
10:28AM 28.2500 -81.6333 221° Southwest 116 133 2,400 -300 Descending Orlando TRACON
10:29AM 28.2167 -81.6500 204° Southwest 113 130 2,100  Descending Orlando TRACON
10:30AM 28.2000 -81.6667 221° Southwest 106 122 2,400 60 Climbing Orlando TRACON
10:31AM 28.1667 -81.6667 180° South 112 129 2,300 -120 Descending Orlando TRACON
10:32AM 28.1667 -81.6333 90° East 94 108 2,200 -60 Descending Orlando TRACON
10:33AM 28.1500 -81.6167 139° Southeast 95 109 2,200  Level Orlando TRACON
10:34AM 28.1333 -81.5833 120° Southeast 100 115 2,200  Level Orlando TRACON
10:35AM 28.1167 -81.5667 139° Southeast 97 112 2,200  Level Orlando TRACON
10:36AM 28.1000 -81.5333 120° Southeast 96 110 2,200  Level Orlando TRACON
10:37AM 28.1000 -81.5167 90° East 85 98 2,200  Level Orlando TRACON
10:38AM 28.1333 -81.5000 24° Northeast 71 82 2,200  Level Orlando TRACON
10:39AM 28.1500 -81.5000 360° North 76 87 2,200  Level Orlando TRACON
10:40AM 28.1667 -81.4833 41° Northeast 76 87 2,200  Level Orlando TRACON
10:41AM 28.1833 -81.4833 360° North 75 86 2,200  Level Orlando TRACON
10:42AM 28.2000 -81.4667 41° Northeast 73 84 2,200 -180 Level Orlando TRACON
10:43AM 28.2167 -81.4667 360° North 75 86 1,900 -600 Descending Orlando TRACON
10:44AM 28.2500 -81.4500 24° Northeast 71 82 1,100 -600 Descending Orlando TRACON
10:45AM 28.2667 -81.4500 360° North 78 90 700 180 Descending Orlando TRACON
10:46AM 28.2833 -81.4667 319° Northwest 86 99 1,500 660 Climbing Orlando TRACON
10:47AM 28.2667 -81.4833 221° Southwest 102 117 2,000 180 Climbing Orlando TRACON
10:48AM 28.2333 -81.5000 204° Southwest 125 144 2,000  Level Orlando TRACON
10:49AM 28.2000 -81.4833 156° South 112 129 2,000  Level Orlando TRACON
10:50AM 28.1833 -81.4667 139° Southeast 109 125 2,000  Level Orlando TRACON
10:51AM 28.1500 -81.4500 156° South 112 129 2,000  Level Orlando TRACON
10:52AM 28.1167 -81.4333 156° South 113 130 2,000  Level Orlando TRACON
10:53AM 28.1000 -81.4167 139° Southeast 112 129 2,000  Level Orlando TRACON
10:54AM 28.0667 -81.4000 156° South 114 131 2,000  Level Orlando TRACON
10:55AM 28.0667 -81.3833 90° East 82 94 2,000  Level Orlando TRACON
10:56AM 28.0833 -81.3667 41° Northeast 81 93 2,000  Level Orlando TRACON
10:57AM 28.1000 -81.3500 41° Northeast 80 92 2,000  Level Orlando TRACON
10:58AM 28.1167 -81.3333 41° Northeast 80 92 2,000 -180 Level Orlando TRACON
10:59AM 28.1333 -81.3333 360° North 92 106 1,700 -180 Descending Orlando TRACON
11:00AM 28.1500 -81.3333 360° North 71 82 1,700  Level Orlando TRACON
11:01AM 28.1667 -81.3500 319° Northwest 78 90 1,700  Level Orlando TRACON
11:02AM 28.2000 -81.3667 336° Northwest 78 90 1,700  Level Orlando TRACON
11:03AM 28.2167 -81.3833 319° Northwest 80 92 1,700 -360 Level Orlando TRACON
11:04AM 28.2333 -81.4000 319° Northwest 68 78 1,100 -660 Descending Orlando TRACON
11:05AM 28.2500 -81.4000 360° North 85 98 500 -300 Descending Orlando TRACON
11:06AM 28.2667 -81.4167 319° Northwest 79 91 500 -60 Level Orlando TRACON
11:08AM 28.3000 -81.4333 336° Northwest 80 92 400 300 Descending Orlando TRACON
11:09AM 28.3000 -81.4833 270° West 94 108 1,500 660 Climbing Orlando TRACON
11:10AM 28.2667 -81.4833 180° South 105 121 2,100 240 Climbing Orlando TRACON
11:11AM 28.2333 -81.4667 156° South 109 125 2,000 -60 Descending Orlando TRACON
11:12AM 28.2167 -81.4667 180° South 112 129 2,000  Level Orlando TRACON
11:13AM 28.1833 -81.4500 156° South 114 131 2,000  Level Orlando TRACON
11:14AM 28.1500 -81.4333 156° South 112 129 2,000  Level Orlando TRACON
11:15AM 28.1167 -81.4333 180° South 110 127 2,000  Level Orlando TRACON
11:16AM 28.1000 -81.4167 139° Southeast 112 129 2,000  Level Orlando TRACON
11:17AM 28.0667 -81.4000 156° South 102 117 2,000  Level Orlando TRACON
11:18AM 28.0833 -81.3833 41° Northeast 77 89 2,000 -60 Level Orlando TRACON
11:19AM 28.1000 -81.3667 41° Northeast 81 93 1,900  Descending Orlando TRACON
11:20AM 28.1167 -81.3500 41° Northeast 82 94 2,000  Climbing Orlando TRACON
11:21AM 28.1333 -81.3333 41° Northeast 79 91 2,000 -180 Level Orlando TRACON
11:22AM 28.1500 -81.3333 360° North 84 97 1,700 -180 Descending Orlando TRACON
11:23AM 28.1667 -81.3500 319° Northwest 81 93 1,700  Level Orlando TRACON
11:24AM 28.1833 -81.3667 319° Northwest 79 91 1,700  Level Orlando TRACON
11:25AM 28.2000 -81.3833 319° Northwest 80 92 1,700 -120 Level Orlando TRACON
11:26AM 28.2167 -81.3833 360° North 77 89 1,500 -300 Descending Orlando TRACON
11:27AM 28.2500 -81.4000 336° Northwest 79 91 1,100 -480 Descending Orlando TRACON
11:28AM 28.2667 -81.4167 319° Northwest 85 98 600 -540 Descending Orlando TRACON